Time;durP1;ratioP1;P1;durP2;ratioP2;P2;SDS_P1;SDS_P2;PMS_P1;PMS_P2;Temp;Humidity;BMP_temperature;BMP_pressure;BME280_temperature;BME280_humidity;BME280_pressure;Samples;Min_cycle;Max_cycle;Signal;HPM_P1;HPM_P2
2023/07/06 00:01:20;;;;;;;12.83;4.40;;;15.30;99.90;;;;;;1928296;72;27060;-87
2023/07/06 00:04:09;;;;;;;9.67;4.10;;;15.30;99.90;;;;;;1894663;75;25236;-87
2023/07/06 00:06:58;;;;;;;9.23;4.60;;;15.30;99.90;;;;;;1900667;75;25674;-87
2023/07/06 00:09:47;;;;;;;7.53;3.80;;;15.20;99.90;;;;;;1885241;75;25623;-87
2023/07/06 00:12:35;;;;;;;8.53;3.90;;;15.30;99.90;;;;;;1854944;76;25326;-87
2023/07/06 00:15:24;;;;;;;5.50;3.37;;;15.30;99.90;;;;;;1905726;73;25166;-87
2023/07/06 00:18:13;;;;;;;5.50;3.80;;;15.30;99.90;;;;;;1899463;73;25278;-89
2023/07/06 00:24:03;;;;;;;8.53;4.13;;;15.30;99.90;;;;;;1951482;72;26945;-87
2023/07/06 00:26:52;;;;;;;6.93;4.20;;;15.30;99.90;;;;;;1925261;73;25271;-86
2023/07/06 00:29:56;;;;;;;8.17;4.47;;;15.30;99.90;;;;;;1940576;72;25714;-86
2023/07/06 00:32:32;;;;;;;12.60;4.47;;;15.20;99.90;;;;;;1925938;73;25694;-86
2023/07/06 00:35:22;;;;;;;13.37;4.80;;;15.00;99.90;;;;;;1926594;73;25350;-86
2023/07/06 00:38:14;;;;;;;13.07;5.27;;;14.90;99.90;;;;;;1944522;73;25235;-86
2023/07/06 00:41:02;;;;;;;14.00;5.40;;;14.80;99.90;;;;;;1932566;72;25641;-87
2023/07/06 00:43:54;;;;;;;10.20;5.67;;;14.70;99.90;;;;;;1910581;74;25674;-86
2023/07/06 00:49:23;;;;;;;11.63;5.60;;;14.60;99.90;;;;;;1942083;72;26994;-87
2023/07/06 00:52:13;;;;;;;10.63;5.30;;;14.60;99.90;;;;;;1873132;76;25237;-87
2023/07/06 00:55:03;;;;;;;13.90;5.70;;;14.50;99.90;;;;;;1844597;76;25767;-87
2023/07/06 00:57:55;;;;;;;9.90;5.13;;;14.50;99.90;;;;;;1882903;75;25578;-87
2023/07/06 01:00:47;;;;;;;12.57;5.57;;;14.40;99.90;;;;;;1919788;73;25235;-87
2023/07/06 01:03:43;;;;;;;10.77;5.83;;;14.40;99.90;;;;;;1862328;76;25599;-86
2023/07/06 01:09:10;;;;;;;12.30;5.33;;;14.40;99.90;;;;;;1928910;72;27091;-87
2023/07/06 01:12:02;;;;;;;9.80;5.10;;;14.40;99.90;;;;;;1898146;74;25210;-87
2023/07/06 01:17:36;;;;;;;7.80;4.13;;;14.50;99.90;;;;;;1913736;72;27131;-86
2023/07/06 01:20:30;;;;;;;13.13;5.03;;;14.40;99.90;;;;;;1910501;75;25144;-86
2023/07/06 01:23:41;;;;;;;11.83;4.97;;;14.40;99.90;;;;;;1887677;75;25245;-86
2023/07/06 01:29:54;;;;;;;9.60;5.30;;;14.40;99.90;;;;;;1945080;72;27053;-86
2023/07/06 01:32:45;;;;;;;11.00;5.33;;;14.40;99.90;;;;;;1916452;75;25243;-86
2023/07/06 01:38:22;;;;;;;12.43;5.37;;;14.50;99.90;;;;;;1928969;72;27137;-87
2023/07/06 01:41:12;;;;;;;9.53;5.10;;;14.40;99.90;;;;;;1899920;74;25325;-86
2023/07/06 01:44:01;;;;;;;9.97;5.00;;;14.40;99.90;;;;;;1907431;75;25749;-86
2023/07/06 01:46:53;;;;;;;12.27;5.23;;;14.40;99.90;;;;;;1905399;73;25878;-86
2023/07/06 01:52:27;;;;;;;13.77;5.17;;;14.50;99.90;;;;;;1942631;72;26975;-86
2023/07/06 01:55:21;;;;;;;8.33;4.70;;;14.50;99.90;;;;;;1875045;75;25623;-86
2023/07/06 01:58:15;;;;;;;11.37;5.23;;;14.50;99.90;;;;;;1899720;73;25240;-86
2023/07/06 02:03:47;;;;;;;13.60;5.83;;;14.50;99.90;;;;;;1894240;74;27157;-86
2023/07/06 02:06:37;;;;;;;13.00;5.47;;;14.40;99.90;;;;;;1825215;77;25262;-87
2023/07/06 02:12:12;;;;;;;10.67;5.20;;;14.50;99.90;;;;;;1947837;72;27037;-86
2023/07/06 02:17:47;;;;;;;9.03;4.87;;;14.50;99.90;;;;;;1960878;72;27064;-86
2023/07/06 02:20:36;;;;;;;13.33;5.40;;;14.50;99.90;;;;;;1937341;73;25656;-86
2023/07/06 02:23:25;;;;;;;15.33;4.93;;;14.40;99.90;;;;;;1917960;73;25257;-88
2023/07/06 02:28:54;;;;;;;14.37;5.17;;;14.40;99.90;;;;;;1929740;72;27044;-86
2023/07/06 02:31:46;;;;;;;9.57;5.40;;;14.40;99.90;;;;;;1895950;75;25233;-86
2023/07/06 02:34:33;;;;;;;10.40;5.67;;;14.40;99.90;;;;;;1878270;76;25288;-86
2023/07/06 02:37:23;;;;;;;13.63;5.13;;;14.40;99.90;;;;;;1867358;75;25178;-86
2023/07/06 02:40:13;;;;;;;10.43;5.17;;;14.50;99.90;;;;;;1899096;74;25765;-86
2023/07/06 02:46:19;;;;;;;10.47;4.90;;;14.40;99.90;;;;;;1966181;71;27118;-87
2023/07/06 02:49:06;;;;;;;17.57;6.13;;;14.50;99.90;;;;;;2026502;70;25211;-87
2023/07/06 02:51:55;;;;;;;12.23;5.43;;;14.40;99.90;;;;;;2003477;70;25231;-87
2023/07/06 02:54:43;;;;;;;9.50;4.80;;;14.50;99.90;;;;;;2004475;70;25294;-87
2023/07/06 02:57:33;;;;;;;13.23;5.20;;;14.50;99.90;;;;;;2014397;70;25707;-87
2023/07/06 03:03:07;;;;;;;15.27;5.30;;;14.40;99.90;;;;;;1961591;72;26891;-86
2023/07/06 03:05:54;;;;;;;17.10;5.13;;;14.40;99.90;;;;;;1920928;72;25699;-86
2023/07/06 03:08:43;;;;;;;8.63;5.07;;;14.40;99.90;;;;;;1916060;73;25262;-86
2023/07/06 03:11:32;;;;;;;9.53;3.87;;;14.40;99.90;;;;;;1919573;73;25697;-85
2023/07/06 03:14:24;;;;;;;11.70;5.33;;;14.40;99.90;;;;;;1937675;73;25264;-86
2023/07/06 03:17:12;;;;;;;12.60;5.27;;;14.30;99.90;;;;;;1924705;73;25266;-86
2023/07/06 03:20:03;;;;;;;11.23;4.63;;;14.40;99.90;;;;;;1906943;73;25283;-86
2023/07/06 03:22:54;;;;;;;11.37;5.27;;;14.30;99.90;;;;;;1885104;75;25292;-86
2023/07/06 03:25:42;;;;;;;11.93;4.80;;;14.30;99.90;;;;;;1865987;76;25632;-86
2023/07/06 03:28:32;;;;;;;12.50;5.13;;;14.40;99.90;;;;;;1868973;76;25262;-86
2023/07/06 03:47:16;;;;;;;12.13;5.07;;;14.30;99.90;;;;;;1946059;72;26939;-87
2023/07/06 03:50:08;;;;;;;10.30;5.00;;;14.60;99.90;;;;;;1939926;72;25253;-87
2023/07/06 03:52:58;;;;;;;8.57;4.37;;;14.60;99.90;;;;;;1939926;73;25442;-87
2023/07/06 03:55:51;;;;;;;16.27;5.37;;;14.60;99.90;;;;;;1938897;72;25233;-87
2023/07/06 03:58:42;;;;;;;11.17;4.50;;;14.50;99.90;;;;;;1922355;72;25273;-87
2023/07/06 04:04:18;;;;;;;12.03;5.10;;;14.50;99.90;;;;;;1944772;71;27404;-87
2023/07/06 04:07:10;;;;;;;13.83;4.87;;;14.50;99.90;;;;;;1932599;72;25242;-87
2023/07/06 04:09:58;;;;;;;10.63;4.70;;;14.60;99.90;;;;;;1932830;73;25624;-87
2023/07/06 04:12:48;;;;;;;13.10;4.60;;;14.50;99.90;;;;;;1940324;72;25207;-87
2023/07/06 04:15:39;;;;;;;9.20;4.47;;;14.50;99.90;;;;;;1926256;73;25245;-88
2023/07/06 04:21:08;;;;;;;8.63;4.67;;;14.60;99.90;;;;;;1925722;72;27085;-87
2023/07/06 04:23:56;;;;;;;15.73;4.60;;;14.60;99.90;;;;;;1899465;75;25294;-87
2023/07/06 04:29:25;;;;;;;12.80;4.57;;;14.60;99.90;;;;;;1932383;72;27569;-87
2023/07/06 04:32:14;;;;;;;16.23;5.60;;;14.60;99.90;;;;;;1901789;74;25760;-87
2023/07/06 04:35:03;;;;;;;13.10;5.80;;;14.50;99.90;;;;;;1913135;75;25708;-87
2023/07/06 04:37:52;;;;;;;7.97;3.70;;;14.50;99.90;;;;;;1892534;75;25258;-87
2023/07/06 04:40:42;;;;;;;9.50;5.00;;;14.50;99.90;;;;;;1895937;75;25283;-87
2023/07/06 04:43:32;;;;;;;12.30;5.47;;;14.50;99.90;;;;;;1906205;75;25389;-87
2023/07/06 04:49:03;;;;;;;13.57;5.33;;;14.50;99.90;;;;;;1929542;72;26987;-87
2023/07/06 04:51:52;;;;;;;11.43;4.73;;;14.60;99.90;;;;;;1891426;74;25227;-87
2023/07/06 04:57:22;;;;;;;13.50;4.87;;;14.60;99.90;;;;;;1929638;72;27040;-87
2023/07/06 05:00:17;;;;;;;10.00;4.80;;;14.60;99.90;;;;;;1865032;76;25272;-87
2023/07/06 05:03:06;;;;;;;10.37;4.93;;;14.50;99.90;;;;;;1848792;76;25197;-87
2023/07/06 05:05:54;;;;;;;10.73;5.17;;;14.50;99.90;;;;;;1872368;75;25152;-88
2023/07/06 05:08:44;;;;;;;12.57;5.17;;;14.60;99.90;;;;;;1850703;76;25220;-87
2023/07/06 05:11:33;;;;;;;12.50;4.87;;;14.60;99.90;;;;;;1871675;76;25331;-87
2023/07/06 05:17:08;;;;;;;13.60;5.10;;;14.60;99.90;;;;;;1950323;72;26966;-87
2023/07/06 05:19:58;;;;;;;11.87;4.80;;;14.60;99.90;;;;;;1928872;73;25680;-87
2023/07/06 05:22:48;;;;;;;10.70;5.10;;;14.60;99.90;;;;;;1937212;72;25298;-87
2023/07/06 05:25:37;;;;;;;15.90;4.93;;;14.60;99.90;;;;;;1912279;73;25712;-87
2023/07/06 05:28:29;;;;;;;8.77;4.67;;;14.70;99.90;;;;;;1872218;76;25715;-88
2023/07/06 05:31:16;;;;;;;11.57;4.80;;;14.80;99.90;;;;;;1882289;75;25677;-87
2023/07/06 05:34:04;;;;;;;11.90;4.77;;;14.90;99.90;;;;;;1882531;74;25242;-88
2023/07/06 05:36:53;;;;;;;10.20;4.50;;;14.90;99.90;;;;;;1880912;75;25231;-89
2023/07/06 05:43:56;;;;;;;9.83;4.60;;;15.10;99.90;;;;;;1978115;71;27631;-89
2023/07/06 05:46:45;;;;;;;14.70;4.60;;;15.20;99.90;;;;;;2008675;70;25671;-89
2023/07/06 05:53:27;;;;;;;10.50;4.23;;;15.10;99.90;;;;;;1979366;71;27066;-88
2023/07/06 05:56:15;;;;;;;12.97;3.97;;;15.20;99.90;;;;;;1996445;70;25790;-89
2023/07/06 05:59:04;;;;;;;9.93;4.83;;;15.20;99.90;;;;;;2008677;70;25250;-89
2023/07/06 06:01:56;;;;;;;11.07;4.10;;;15.30;99.90;;;;;;2006321;70;25214;-89
2023/07/06 06:04:47;;;;;;;7.87;3.60;;;15.30;99.90;;;;;;2013079;70;25241;-89
2023/07/06 06:10:22;;;;;;;7.83;4.10;;;15.30;99.90;;;;;;1941213;73;26917;-88
2023/07/06 06:13:12;;;;;;;9.10;3.53;;;15.40;99.90;;;;;;1918027;73;25271;-89
2023/07/06 06:16:00;;;;;;;9.67;3.33;;;15.40;99.90;;;;;;1913990;73;25317;-88
2023/07/06 06:18:49;;;;;;;10.03;3.80;;;15.40;99.90;;;;;;1924760;72;25471;-89
2023/07/06 06:21:38;;;;;;;7.67;3.90;;;15.40;99.90;;;;;;1925458;73;25765;-89
2023/07/06 06:24:27;;;;;;;7.13;3.43;;;15.50;99.90;;;;;;1937706;73;25208;-89
2023/07/06 06:27:25;;;;;;;9.30;4.00;;;15.60;99.90;;;;;;1946762;73;25717;-88
2023/07/06 06:30:12;;;;;;;6.93;3.30;;;15.60;99.90;;;;;;1936339;73;25699;-89
2023/07/06 06:33:01;;;;;;;9.50;3.50;;;15.70;99.90;;;;;;1922836;72;25219;-89
2023/07/06 06:35:50;;;;;;;8.10;3.50;;;15.70;99.90;;;;;;1931080;73;25225;-90
2023/07/06 06:38:39;;;;;;;6.83;3.43;;;15.70;99.90;;;;;;1929337;73;25301;-89
2023/07/06 06:41:28;;;;;;;7.53;3.37;;;15.80;99.90;;;;;;1913542;73;25464;-90
2023/07/06 07:17:10;;;;;;;6.53;2.17;;;17.10;99.90;;;;;;1949929;72;28388;-89
2023/07/06 07:19:59;;;;;;;3.77;2.57;;;17.30;99.90;;;;;;1930082;73;26526;-89
2023/07/06 07:22:48;;;;;;;7.20;2.40;;;17.30;99.90;;;;;;1942347;73;25288;-89
2023/07/06 07:25:41;;;;;;;6.17;3.07;;;17.20;99.90;;;;;;1919334;73;25263;-90
2023/07/06 07:28:31;;;;;;;8.17;2.77;;;17.20;99.90;;;;;;1924893;73;25798;-90
2023/07/06 07:34:43;;;;;;;9.93;2.63;;;17.30;99.90;;;;;;1976818;71;26407;-89
2023/07/06 07:37:31;;;;;;;3.53;2.20;;;17.60;99.90;;;;;;2013391;69;25878;-89
2023/07/06 07:40:22;;;;;;;8.70;2.53;;;17.80;99.90;;;;;;2015427;70;25655;-89
2023/07/06 07:43:11;;;;;;;6.13;2.50;;;17.40;99.90;;;;;;1975261;72;25884;-89
2023/07/06 08:13:50;;;;;;;9.27;2.03;;;17.40;99.90;;;;;;1928705;74;26631;-89
2023/07/06 08:30:40;;;;;;;4.83;1.80;;;17.60;99.90;;;;;;1917757;74;27003;-89
2023/07/06 08:49:36;;;;;;;7.03;1.90;;;17.10;99.90;;;;;;1946873;72;26977;-89
2023/07/06 08:55:17;;;;;;;4.47;1.80;;;16.90;99.90;;;;;;1955496;72;26882;-89
2023/07/06 08:58:06;;;;;;;5.03;2.07;;;17.00;99.90;;;;;;1927352;72;25243;-88
2023/07/06 09:00:59;;;;;;;3.17;1.80;;;16.90;99.90;;;;;;1931022;73;25178;-88
2023/07/06 09:03:49;;;;;;;7.13;1.63;;;16.90;99.90;;;;;;1936095;73;25258;-89
2023/07/06 09:06:41;;;;;;;3.03;1.73;;;17.00;99.90;;;;;;1930949;73;25152;-89
2023/07/06 09:09:31;;;;;;;6.33;1.80;;;17.00;99.90;;;;;;1927856;72;25231;-88
2023/07/06 09:12:25;;;;;;;3.00;1.60;;;17.00;99.90;;;;;;1937710;73;25248;-89
2023/07/06 09:31:43;;;;;;;1.90;1.60;;;18.50;99.90;;;;;;1915590;72;26969;-88
2023/07/06 09:34:34;;;;;;;6.63;1.93;;;18.80;99.90;;;;;;1920314;73;25214;-88
2023/07/06 09:37:24;;;;;;;3.07;1.90;;;18.40;99.90;;;;;;1921602;73;25329;-89
2023/07/06 09:42:56;;;;;;;4.00;1.80;;;17.90;99.90;;;;;;1945091;72;26899;-88
2023/07/06 09:45:46;;;;;;;6.00;1.60;;;17.90;99.90;;;;;;1951312;72;25261;-88
2023/07/06 09:48:37;;;;;;;2.67;1.20;;;17.80;99.90;;;;;;1936871;72;25167;-89
2023/07/06 09:54:17;;;;;;;2.67;1.57;;;17.50;99.90;;;;;;1933847;72;27071;-90
2023/07/06 09:57:15;;;;;;;3.20;1.67;;;17.50;99.90;;;;;;1854797;76;25244;-90
2023/07/06 10:17:12;;;;;;;2.50;1.60;;;18.10;99.90;;;;;;1944140;72;27638;-88
2023/07/06 10:20:05;;;;;;;2.40;1.30;;;17.70;99.90;;;;;;1928195;73;25236;-88
2023/07/06 10:25:46;;;;;;;4.93;1.40;;;17.30;99.90;;;;;;1936424;72;27012;-87
2023/07/06 10:31:52;;;;;;;3.43;1.60;;;17.40;99.90;;;;;;1972525;71;27036;-87
2023/07/06 10:34:44;;;;;;;3.50;1.50;;;17.40;99.90;;;;;;1947628;73;25824;-87
2023/07/06 10:40:24;;;;;;;3.70;2.00;;;17.20;99.90;;;;;;1942304;72;26942;-87
2023/07/06 10:45:59;;;;;;;2.37;1.80;;;16.90;99.90;;;;;;1934405;72;27011;-86
2023/07/06 10:48:51;;;;;;;5.37;1.00;;;16.90;99.90;;;;;;1915940;75;25669;-87
2023/07/06 10:51:47;;;;;;;1.57;0.83;;;16.20;99.90;;;;;;1886403;74;25310;-86
2023/07/06 10:54:36;;;;;;;2.27;1.10;;;15.50;99.90;;;;;;1892682;75;25246;-85
2023/07/06 11:00:22;;;;;;;4.53;1.53;;;14.80;99.90;;;;;;1963161;72;26902;-86
2023/07/06 11:03:18;;;;;;;3.40;1.20;;;14.50;99.90;;;;;;1949418;72;25253;-86
2023/07/06 11:06:11;;;;;;;4.00;1.20;;;14.40;99.90;;;;;;1935926;72;25328;-86
2023/07/06 11:09:28;;;;;;;1.80;1.10;;;14.40;99.90;;;;;;1942840;73;25235;-85
2023/07/06 11:12:21;;;;;;;4.10;1.27;;;14.30;99.90;;;;;;1890714;75;25217;-85
2023/07/06 11:15:17;;;;;;;3.43;1.10;;;14.40;99.90;;;;;;1882488;74;25806;-84
2023/07/06 11:18:11;;;;;;;2.60;1.10;;;15.10;99.90;;;;;;1860674;76;25327;-85
2023/07/06 11:21:03;;;;;;;1.57;0.90;;;15.80;99.90;;;;;;1897481;75;25236;-85
2023/07/06 11:23:54;;;;;;;3.67;1.00;;;16.20;99.90;;;;;;1878692;75;25274;-85
2023/07/06 11:43:35;;;;;;;1.50;1.00;;;16.40;99.90;;;;;;1940773;72;27364;-86
2023/07/06 11:49:21;;;;;;;2.77;0.90;;;16.20;99.90;;;;;;1944839;72;26940;-86
2023/07/06 11:52:15;;;;;;;0.97;0.73;;;16.20;99.90;;;;;;1936388;72;25306;-86
2023/07/06 11:55:18;;;;;;;1.70;1.00;;;16.00;99.90;;;;;;1943362;72;25307;-87
2023/07/06 11:58:05;;;;;;;2.10;1.20;;;15.90;99.90;;;;;;1862309;75;25319;-86
2023/07/06 12:00:55;;;;;;;1.27;1.13;;;15.80;99.90;;;;;;1938941;72;25346;-87
2023/07/06 12:03:47;;;;;;;2.57;1.10;;;15.90;99.90;;;;;;1932135;72;25677;-87
2023/07/06 12:06:35;;;;;;;2.40;1.17;;;16.20;99.90;;;;;;1930253;73;25260;-87
2023/07/06 12:09:25;;;;;;;1.23;1.00;;;16.60;99.90;;;;;;1941864;73;25225;-87
2023/07/06 12:12:20;;;;;;;1.70;1.00;;;17.20;99.90;;;;;;1943370;72;25197;-87
2023/07/06 12:15:12;;;;;;;1.50;0.90;;;17.80;99.90;;;;;;1944560;72;25611;-87
2023/07/06 12:18:01;;;;;;;2.47;1.20;;;18.20;99.90;;;;;;1935330;72;25295;-87
2023/07/06 12:20:54;;;;;;;2.37;1.10;;;18.30;99.90;;;;;;1923613;72;25309;-87
2023/07/06 12:23:43;;;;;;;2.23;1.10;;;18.30;99.90;;;;;;1937384;72;25168;-87
2023/07/06 12:26:32;;;;;;;1.73;1.10;;;18.30;99.90;;;;;;1933086;73;25172;-88
2023/07/06 12:29:26;;;;;;;1.10;1.00;;;18.40;99.90;;;;;;1936141;73;25689;-87
2023/07/06 12:32:17;;;;;;;1.83;1.20;;;18.30;99.90;;;;;;1936643;72;25218;-88
2023/07/06 12:35:08;;;;;;;1.50;1.20;;;18.50;99.90;;;;;;1934765;72;25235;-87
2023/07/06 12:37:57;;;;;;;1.43;1.20;;;18.40;99.90;;;;;;1944556;72;25624;-88
2023/07/06 12:43:30;;;;;;;1.13;1.00;;;18.20;99.90;;;;;;1933498;72;27713;-88
2023/07/06 12:46:21;;;;;;;3.57;1.23;;;18.10;99.90;;;;;;1911342;73;25203;-87
2023/07/06 12:49:20;;;;;;;1.83;1.10;;;18.10;99.90;;;;;;1901914;73;25162;-87
2023/07/06 12:52:07;;;;;;;2.90;1.13;;;18.20;99.90;;;;;;1877412;76;25297;-87
2023/07/06 12:54:57;;;;;;;1.77;1.17;;;18.30;99.90;;;;;;1898775;73;25269;-87
2023/07/06 12:57:46;;;;;;;4.33;1.40;;;18.10;99.90;;;;;;1903786;74;25403;-87
2023/07/06 13:00:35;;;;;;;1.60;1.10;;;17.90;99.90;;;;;;1902797;73;25260;-87
2023/07/06 13:03:23;;;;;;;1.43;1.10;;;18.20;99.90;;;;;;1873196;76;25266;-87
2023/07/06 13:06:12;;;;;;;3.03;1.50;;;18.50;99.90;;;;;;1837296;77;25282;-87
2023/07/06 13:09:02;;;;;;;4.40;1.50;;;18.20;99.90;;;;;;1874537;76;25821;-87
2023/07/06 13:11:53;;;;;;;2.30;1.30;;;18.30;99.90;;;;;;1814488;76;25318;-88
2023/07/06 13:14:42;;;;;;;2.97;1.47;;;18.50;99.90;;;;;;1909243;73;25214;-87
2023/07/06 13:20:12;;;;;;;2.70;1.50;;;18.10;99.90;;;;;;1925700;72;27098;-87
2023/07/06 13:25:55;;;;;;;1.67;1.13;;;18.20;99.90;;;;;;1952532;72;27097;-87
2023/07/06 13:28:44;;;;;;;1.77;1.20;;;18.00;99.90;;;;;;1939488;73;25367;-87
2023/07/06 13:31:33;;;;;;;4.57;1.30;;;17.90;99.90;;;;;;1913822;72;25200;-87
2023/07/06 13:34:23;;;;;;;1.23;1.13;;;17.60;99.90;;;;;;1935438;72;25880;-87
2023/07/06 13:37:17;;;;;;;2.87;1.53;;;17.40;99.90;;;;;;1917351;73;25207;-88
2023/07/06 13:40:09;;;;;;;1.20;1.20;;;17.40;99.90;;;;;;1922235;73;25332;-87
2023/07/06 13:42:59;;;;;;;4.57;1.43;;;17.30;99.90;;;;;;1903135;75;25629;-87
2023/07/06 14:02:52;;;;;;;4.33;1.63;;;18.00;99.90;;;;;;1949909;72;27424;-87
2023/07/06 14:05:41;;;;;;;2.33;1.70;;;18.30;99.90;;;;;;1931868;73;25168;-87
2023/07/06 14:08:32;;;;;;;1.40;1.30;;;18.40;99.90;;;;;;1943388;73;25693;-87
2023/07/06 14:11:21;;;;;;;2.07;1.50;;;18.40;99.90;;;;;;1943974;73;25162;-87
2023/07/06 14:14:09;;;;;;;3.50;1.40;;;18.20;99.90;;;;;;1926524;72;25208;-87
2023/07/06 14:16:58;;;;;;;4.83;1.50;;;17.90;99.90;;;;;;1941913;72;25626;-87
2023/07/06 14:23:02;;;;;;;1.90;1.40;;;17.90;99.90;;;;;;1966935;71;26249;-87
2023/07/06 14:25:51;;;;;;;3.67;1.27;;;17.60;99.90;;;;;;1989135;72;25229;-88
2023/07/06 14:28:40;;;;;;;1.57;1.20;;;17.50;99.90;;;;;;1983631;72;25252;-88
2023/07/06 14:31:30;;;;;;;4.73;1.30;;;17.40;99.90;;;;;;1990580;72;25897;-87
2023/07/06 14:34:22;;;;;;;2.77;1.60;;;17.20;99.90;;;;;;1982520;72;25215;-87
2023/07/06 14:37:11;;;;;;;3.30;1.60;;;17.20;99.90;;;;;;1992280;72;25230;-87
2023/07/06 14:40:00;;;;;;;6.23;1.93;;;17.10;99.90;;;;;;1992216;72;25235;-87
2023/07/06 14:45:31;;;;;;;2.73;1.90;;;17.00;99.90;;;;;;1941049;72;27041;-87
2023/07/06 14:48:20;;;;;;;6.77;2.10;;;16.90;99.90;;;;;;1926145;73;25164;-87
2023/07/06 14:51:10;;;;;;;7.07;1.80;;;16.70;99.90;;;;;;1918439;73;25248;-87
2023/07/06 14:53:59;;;;;;;3.97;2.33;;;16.70;99.90;;;;;;1924222;73;25283;-88
2023/07/06 14:56:47;;;;;;;5.73;2.27;;;16.70;99.90;;;;;;1920663;73;25630;-87
2023/07/06 14:59:36;;;;;;;4.60;2.30;;;16.70;99.90;;;;;;1929132;73;25300;-87
2023/07/06 15:02:26;;;;;;;5.20;2.50;;;16.60;99.90;;;;;;1935893;73;25245;-87
2023/07/06 15:05:15;;;;;;;6.50;2.63;;;16.40;99.90;;;;;;1917852;73;25968;-87
2023/07/06 15:08:05;;;;;;;4.83;2.43;;;16.50;99.90;;;;;;1916363;73;25170;-87
2023/07/06 15:10:54;;;;;;;4.07;2.50;;;16.40;99.90;;;;;;1923407;73;25172;-88
2023/07/06 15:13:43;;;;;;;6.10;2.70;;;16.40;99.90;;;;;;1890713;75;25699;-88
2023/07/06 15:16:31;;;;;;;16.93;2.87;;;16.50;99.90;;;;;;1927187;73;25859;-87
2023/07/06 15:19:20;;;;;;;4.73;2.60;;;16.40;99.90;;;;;;1943545;73;25234;-87
2023/07/06 15:22:09;;;;;;;7.40;2.30;;;16.50;99.90;;;;;;1929746;73;25261;-87
2023/07/06 15:24:58;;;;;;;6.20;2.73;;;16.40;99.90;;;;;;1931045;73;25225;-87
2023/07/06 15:27:47;;;;;;;6.17;2.73;;;16.20;99.90;;;;;;1929499;73;25260;-88
2023/07/06 15:30:36;;;;;;;7.80;2.40;;;15.80;99.90;;;;;;1924402;73;25237;-87
2023/07/06 15:33:25;;;;;;;6.50;2.87;;;15.60;99.90;;;;;;1927476;73;25326;-87
2023/07/06 15:36:14;;;;;;;7.67;3.23;;;15.50;99.90;;;;;;1925526;73;25211;-87
2023/07/06 15:39:08;;;;;;;10.00;3.20;;;15.50;99.90;;;;;;1927842;73;25225;-87
2023/07/06 15:41:56;;;;;;;4.47;3.37;;;15.60;99.90;;;;;;1909006;73;25821;-87
2023/07/06 15:44:45;;;;;;;7.33;3.03;;;15.60;99.90;;;;;;1898108;74;25311;-87
2023/07/06 15:50:16;;;;;;;10.23;2.63;;;15.90;99.90;;;;;;1913475;72;27191;-86
2023/07/06 15:53:07;;;;;;;3.37;2.27;;;15.90;99.90;;;;;;1917232;73;25286;-86
2023/07/06 15:55:59;;;;;;;6.13;2.63;;;15.80;99.90;;;;;;1943863;72;25298;-86
2023/07/06 15:59:01;;;;;;;2.93;2.20;;;15.80;99.90;;;;;;1923738;73;25240;-86
2023/07/06 16:01:50;;;;;;;4.90;2.70;;;15.70;99.90;;;;;;1940462;73;25716;-85
2023/07/06 16:04:39;;;;;;;7.73;3.40;;;15.60;99.90;;;;;;1926397;73;25239;-85
2023/07/06 16:10:11;;;;;;;4.67;3.37;;;15.20;99.90;;;;;;1932243;72;27047;-87
2023/07/06 16:13:00;;;;;;;7.27;3.47;;;15.30;99.90;;;;;;1895488;74;25134;-85
2023/07/06 16:15:50;;;;;;;6.77;3.10;;;15.30;99.90;;;;;;1897994;74;25767;-85
2023/07/06 16:18:40;;;;;;;6.80;3.00;;;15.40;99.90;;;;;;1907336;74;25245;-85
2023/07/06 16:21:29;;;;;;;9.53;3.33;;;15.50;99.90;;;;;;1896763;75;25863;-86
2023/07/06 16:24:18;;;;;;;7.20;3.10;;;15.60;99.90;;;;;;1908589;75;25775;-86
2023/07/06 16:27:09;;;;;;;5.00;2.87;;;15.70;99.90;;;;;;1903250;74;25322;-85
2023/07/06 16:29:57;;;;;;;5.03;2.53;;;15.50;99.90;;;;;;1892788;75;25577;-86
2023/07/06 16:32:46;;;;;;;4.50;2.63;;;15.40;99.90;;;;;;1899038;75;25804;-86
2023/07/06 16:35:34;;;;;;;3.07;1.90;;;15.30;99.90;;;;;;1902262;75;25705;-86
2023/07/06 16:38:23;;;;;;;2.47;1.77;;;15.20;99.90;;;;;;1898723;74;25215;-86
2023/07/06 16:41:13;;;;;;;4.27;2.30;;;15.20;99.90;;;;;;1907728;74;25314;-86
2023/07/06 16:44:02;;;;;;;3.60;2.70;;;15.20;99.90;;;;;;1899772;75;25241;-86
2023/07/06 16:46:52;;;;;;;2.90;2.40;;;15.30;99.90;;;;;;1884693;75;25287;-86
2023/07/06 16:49:41;;;;;;;8.73;2.50;;;15.30;99.90;;;;;;1902852;75;25225;-86
2023/07/06 16:52:30;;;;;;;3.57;2.57;;;15.40;99.90;;;;;;1824904;77;25252;-86
2023/07/06 16:55:18;;;;;;;4.77;2.80;;;15.50;99.90;;;;;;1910494;74;25180;-86
2023/07/06 17:01:02;;;;;;;3.83;2.20;;;15.60;99.90;;;;;;1952035;72;26914;-86
2023/07/06 17:03:50;;;;;;;4.00;2.40;;;15.70;99.90;;;;;;1941514;72;25300;-86
2023/07/06 17:06:39;;;;;;;6.00;2.57;;;15.80;99.90;;;;;;1934341;73;25661;-85
2023/07/06 17:09:28;;;;;;;9.13;2.60;;;15.80;99.90;;;;;;1923468;72;25262;-85
2023/07/06 17:12:16;;;;;;;5.27;2.43;;;15.80;99.90;;;;;;1940849;72;25244;-85
2023/07/06 17:15:06;;;;;;;5.40;2.30;;;15.90;99.90;;;;;;1935472;72;25265;-85
2023/07/06 17:17:56;;;;;;;3.53;2.17;;;15.90;99.90;;;;;;1929697;73;26694;-86
2023/07/06 17:23:25;;;;;;;3.07;2.10;;;15.90;99.90;;;;;;1945415;72;27011;-84
2023/07/06 17:26:14;;;;;;;2.33;1.90;;;15.80;99.90;;;;;;1888741;75;25730;-84
2023/07/06 17:29:02;;;;;;;2.00;1.60;;;15.80;99.90;;;;;;1896032;75;25236;-84
2023/07/06 17:31:51;;;;;;;3.30;1.53;;;15.70;99.90;;;;;;1891506;75;25342;-86
2023/07/06 17:34:40;;;;;;;1.80;1.60;;;15.70;99.90;;;;;;1900644;75;25300;-84
2023/07/06 17:37:28;;;;;;;4.67;1.70;;;15.70;99.90;;;;;;1904925;73;25165;-85
2023/07/06 17:40:18;;;;;;;1.97;1.80;;;15.70;99.90;;;;;;1894287;75;25175;-85
2023/07/06 17:43:07;;;;;;;5.13;1.73;;;15.70;99.90;;;;;;1871444;76;25328;-84
2023/07/06 17:45:56;;;;;;;2.60;1.60;;;15.70;99.90;;;;;;1857115;76;25299;-84
2023/07/06 17:51:31;;;;;;;3.50;2.07;;;15.60;99.90;;;;;;2024069;69;26985;-84
2023/07/06 17:54:20;;;;;;;3.87;1.70;;;15.70;99.90;;;;;;1978001;72;25197;-84
2023/07/06 17:57:09;;;;;;;2.00;1.50;;;15.70;99.90;;;;;;1973550;72;25266;-84
2023/07/06 17:59:57;;;;;;;2.87;1.53;;;15.80;99.90;;;;;;1981673;72;25293;-84
2023/07/06 18:05:32;;;;;;;3.53;1.50;;;15.80;99.90;;;;;;1894434;74;27134;-83
2023/07/06 18:08:20;;;;;;;2.87;1.70;;;15.80;99.90;;;;;;1844933;77;25710;-86
2023/07/06 18:11:09;;;;;;;1.33;1.23;;;15.80;99.90;;;;;;1838964;77;25253;-87
2023/07/06 18:13:57;;;;;;;3.30;1.40;;;15.70;99.90;;;;;;1825278;77;25280;-87
2023/07/06 18:16:46;;;;;;;4.37;1.73;;;15.60;99.90;;;;;;1831252;76;25348;-87
2023/07/06 18:19:37;;;;;;;2.20;1.60;;;15.60;99.90;;;;;;1834428;76;25346;-89
2023/07/06 18:22:25;;;;;;;4.30;1.60;;;15.60;99.90;;;;;;1825073;77;25213;-89
2023/07/06 18:25:14;;;;;;;1.60;1.50;;;15.60;99.90;;;;;;1833830;77;25275;-88
2023/07/06 18:28:02;;;;;;;2.73;1.73;;;15.50;99.90;;;;;;1828610;77;25249;-88
2023/07/06 18:34:05;;;;;;;6.27;2.10;;;15.50;99.90;;;;;;1978979;71;26838;-87
2023/07/06 18:36:54;;;;;;;3.27;1.90;;;15.60;99.90;;;;;;2009141;69;25291;-87
2023/07/06 18:39:43;;;;;;;2.50;1.90;;;15.60;99.90;;;;;;2017368;70;25178;-87
2023/07/06 18:42:32;;;;;;;1.67;1.50;;;15.60;99.90;;;;;;2025167;70;25834;-87
2023/07/06 18:45:20;;;;;;;5.03;1.80;;;15.60;99.90;;;;;;1970549;72;25247;-87
2023/07/06 18:48:09;;;;;;;4.27;2.00;;;15.60;99.90;;;;;;1926423;74;25379;-87
2023/07/06 18:53:43;;;;;;;2.20;1.60;;;15.70;99.90;;;;;;1942983;72;27508;-88
2023/07/06 18:56:32;;;;;;;1.80;1.70;;;15.60;99.90;;;;;;1938963;73;25233;-88
2023/07/06 18:59:20;;;;;;;1.57;1.33;;;15.60;99.90;;;;;;1922512;74;25230;-89
2023/07/06 19:02:11;;;;;;;3.87;1.70;;;15.60;99.90;;;;;;1934629;73;25248;-88
2023/07/06 19:07:47;;;;;;;3.03;1.63;;;15.70;99.90;;;;;;2031646;69;26990;-87
2023/07/06 19:10:41;;;;;;;3.20;1.77;;;15.70;99.90;;;;;;1995207;71;25230;-88
2023/07/06 19:13:29;;;;;;;5.43;1.70;;;15.70;99.90;;;;;;2009648;71;25302;-87
2023/07/06 19:16:18;;;;;;;4.47;1.80;;;15.70;99.90;;;;;;2001810;70;25214;-87
2023/07/06 19:19:07;;;;;;;3.40;1.70;;;15.70;99.90;;;;;;1958541;72;26413;-87
2023/07/06 19:21:56;;;;;;;5.43;2.00;;;15.60;99.90;;;;;;1996783;70;25211;-87
2023/07/06 19:24:44;;;;;;;1.70;1.60;;;15.50;99.90;;;;;;1938158;72;25293;-87
2023/07/06 19:27:33;;;;;;;3.63;1.70;;;15.50;99.90;;;;;;2003208;71;25190;-88
2023/07/06 19:30:22;;;;;;;1.80;1.70;;;15.60;99.90;;;;;;1999556;71;25164;-87
2023/07/06 19:33:11;;;;;;;4.03;1.80;;;15.50;99.90;;;;;;2007450;71;25871;-87
2023/07/06 19:40:14;;;;;;;3.87;1.90;;;15.40;99.90;;;;;;1978570;71;26270;-87
2023/07/06 19:43:03;;;;;;;4.00;1.50;;;15.30;99.90;;;;;;1967881;72;25251;-87
2023/07/06 19:45:52;;;;;;;5.30;1.80;;;15.40;99.90;;;;;;1964084;72;25227;-87
2023/07/06 19:51:23;;;;;;;2.03;1.47;;;15.40;99.90;;;;;;1923686;72;27686;-87
2023/07/06 19:57:34;;;;;;;1.53;1.43;;;15.40;99.90;;;;;;1973422;71;27057;-87
2023/07/06 20:03:04;;;;;;;1.87;1.63;;;15.50;99.90;;;;;;1905264;74;27047;-87